Meteosat more information blitzortung!


Radar lluvias  rain snow radar


Website of another weatherstation

Website of another weatherstation



No requiere especial atención con respecto al clima.    No hay Alarmas

Pagina Historial Weather Underground texto

Diario Resumen Abril 24, 2019 Unidades:  Métrico    impérial   Tanto
« Anterior Dia
Siguiente Dia »
Diario Semana Mensual Anual Personalizada
  Actual: Alto: Baja: Media:
Temperatura: -8.1 °C -17.8 °C -11.9 °C -8.6 °C
Punto de rocío: -12.6 °C -17.8 °C -15.6 °C -12.8 °C
Humedad: 59 % Humidity % 38 % 63 %
Velocidad del Viento: 9 km/h 0 km/h 0 km/h 10.3 km/h
Ráfagas de viento: 5.5 km/h 0 km/h - -
Viento:NNW - - SSW
Pression baro: 33958.2 hPa 0 hPa 33687.3 hPa -
Précipitaciones: 0 mm      
Historical Graphs
 
 
Datos de tabla para Abril 24, 2019
Tiempo Temperatura Punto de rocío Pression baro Viento Velocidad del Viento Ráfagas de viento Humedad Las precipitaciones Rate ( Hora )
-17.8 °C -17.8 °C 0 hPa Calm     Humidity % 0 mm
00:04 -9.7 °C -11.3 °C 33687.3 hPa SW 6 km/h 3.9 km/h 83 % 0 mm
00:09 -9.7 °C -11.3 °C 33687.3 hPa WSW 6.4 km/h 4.2 km/h 83 % 0 mm
00:14 -9.7 °C -11.4 °C 33687.3 hPa Calm     82 % 0 mm
00:19 -9.7 °C -11.4 °C 33687.3 hPa Calm     82 % 0 mm
00:24 -9.7 °C -11.5 °C 33687.3 hPa SSE 3.1 km/h 0.5 km/h 81 % 0 mm
00:29 -9.7 °C -11.5 °C 33687.3 hPa WSW 6 km/h 2.3 km/h 81 % 0 mm
00:34 -9.7 °C -11.4 °C 33687.3 hPa SW 3.1 km/h   82 % 0 mm
00:39 -9.7 °C -11.5 °C 33687.3 hPa WSW 3.1 km/h 0.5 km/h 81 % 0 mm
00:44 -9.7 °C -11.4 °C 33687.3 hPa WSW 3.1 km/h   82 % 0 mm
00:49 -9.7 °C -11.4 °C 33687.3 hPa ENE 3.1 km/h   82 % 0 mm
00:54 -9.7 °C -11.4 °C 33687.3 hPa WSW 6 km/h 3.7 km/h 82 % 0 mm
00:59 -9.7 °C -11.4 °C 33687.3 hPa SE 3.1 km/h 0.8 km/h 82 % 0 mm
01:04 -9.7 °C -11.4 °C 33687.3 hPa WSW 6 km/h 2.6 km/h 82 % 0 mm
01:09 -9.7 °C -11.4 °C 33687.3 hPa SW 3.1 km/h 1.3 km/h 82 % 0 mm
01:14 -9.7 °C -11.4 °C 33687.3 hPa Calm     82 % 0 mm
01:19 -9.7 °C -11.4 °C 33687.3 hPa SW 6 km/h 0.5 km/h 82 % 0 mm
01:24 -9.7 °C -11.4 °C 33687.3 hPa WSW 6 km/h 0.5 km/h 82 % 0 mm
01:29 -9.7 °C -11.5 °C 33721.2 hPa SW 6 km/h 1.6 km/h 81 % 0 mm
01:34 -9.7 °C -11.4 °C 33721.2 hPa WSW 3.1 km/h 2.1 km/h 82 % 0 mm
01:39 -9.7 °C -11.4 °C 33721.2 hPa WSW 6 km/h 3.9 km/h 82 % 0 mm
01:44 -9.7 °C -11.4 °C 33721.2 hPa SW 6 km/h 3.1 km/h 82 % 0 mm
01:49 -9.7 °C -11.3 °C 33721.2 hPa WSW 6 km/h 2.9 km/h 83 % 0 mm
01:54 -10.3 °C -11.8 °C 33687.3 hPa Calm     84 % 0 mm
01:59 -10.3 °C -11.8 °C 33721.2 hPa SE 3.1 km/h 0.5 km/h 84 % 0 mm
02:04 -10.3 °C -11.8 °C 33687.3 hPa WSW 6 km/h 1.6 km/h 84 % 0 mm
02:09 -10.3 °C -11.7 °C 33721.2 hPa WSW 9 km/h 6.3 km/h 85 % 0 mm
02:14 -10.3 °C -11.7 °C 33721.2 hPa WSW 6 km/h 2.1 km/h 85 % 0 mm
02:19 -10.3 °C -11.6 °C 33721.2 hPa WSW 6.4 km/h 5 km/h 86 % 0 mm
02:24 -10.3 °C -11.6 °C 33721.2 hPa WSW 6 km/h 3.9 km/h 86 % 0 mm
02:29 -10.3 °C -11.6 °C 33721.2 hPa WSW 6 km/h 3.4 km/h 86 % 0 mm
02:34 -10.3 °C -11.6 °C 33721.2 hPa WSW 6 km/h 3.9 km/h 86 % 0 mm
02:39 -10.3 °C -11.6 °C 33721.2 hPa SW 6 km/h 2.9 km/h 86 % 0 mm
02:44 -10.3 °C -11.7 °C 33721.2 hPa NW 6 km/h 3.4 km/h 85 % 0 mm
02:49 -10.3 °C -11.7 °C 33721.2 hPa WSW 12.9 km/h 6.9 km/h 85 % 0 mm
02:54 -10.3 °C -11.6 °C 33721.2 hPa WSW 11.9 km/h 7.7 km/h 86 % 0 mm
02:58 -10.3 °C -11.4 °C 33721.2 hPa SW 9 km/h 6.4 km/h 87 % 0 mm
03:04 -10.3 °C -11.4 °C 33721.2 hPa WSW 6 km/h 3.4 km/h 87 % 0 mm
03:09 -10.3 °C -11.6 °C 33721.2 hPa WSW 9 km/h 4.3 km/h 86 % 0 mm
03:14 -10.3 °C -11.6 °C 33721.2 hPa WSW 9 km/h 5.5 km/h 86 % 0 mm
03:18 -10.3 °C -11.4 °C 33721.2 hPa WSW 9 km/h 6.8 km/h 87 % 0 mm
03:23 -10.3 °C -11.6 °C 33721.2 hPa NNW 6 km/h 3.4 km/h 86 % 0 mm
03:29 -10.3 °C -11.6 °C 33721.2 hPa WSW 6 km/h 3.7 km/h 86 % 0 mm
03:34 -10.8 °C -12.1 °C 33721.2 hPa SW 3.1 km/h 1.6 km/h 86 % 0 mm
03:39 -10.8 °C -12.1 °C 33721.2 hPa WNW 3.1 km/h 0.3 km/h 86 % 0 mm
03:44 -10.8 °C -12.2 °C 33721.2 hPa SSE 3.1 km/h   85 % 0 mm
03:49 -10.8 °C -12.1 °C 33721.2 hPa ESE 6 km/h 2.1 km/h 86 % 0 mm
03:54 -10.8 °C -12.1 °C 33721.2 hPa SE 3.1 km/h   86 % 0 mm
03:59 -11.4 °C -12.7 °C 33721.2 hPa SSW 6 km/h 1 km/h 86 % 0 mm
04:04 -11.4 °C -12.7 °C 33721.2 hPa SW 5 km/h 1.6 km/h 85 % 0 mm
04:09 -11.4 °C -12.7 °C 33755 hPa WSW 3.1 km/h   85 % 0 mm
04:14 -11.4 °C -12.7 °C 33755 hPa WSW 3.1 km/h 0.8 km/h 85 % 0 mm
04:19 -11.4 °C -12.7 °C 33755 hPa Calm     85 % 0 mm
04:24 -11.4 °C -12.7 °C 33755 hPa NW 3.1 km/h   85 % 0 mm
04:29 -11.4 °C -12.8 °C 33755 hPa Calm     84 % 0 mm
04:34 -11.4 °C -12.7 °C 33755 hPa Calm     85 % 0 mm
04:39 -11.4 °C -12.7 °C 33755 hPa Calm     85 % 0 mm
04:44 -11.4 °C -12.7 °C 33755 hPa Calm     86 % 0 mm
04:49 -11.4 °C -12.7 °C 33755 hPa Calm     85 % 0 mm
04:54 -11.4 °C -12.7 °C 33755 hPa Calm     85 % 0 mm
04:59 -11.4 °C -12.7 °C 33755 hPa NE 3.1 km/h   85 % 0 mm
05:04 -11.4 °C -12.7 °C 33755 hPa Calm     86 % 0 mm
05:09 -11.4 °C -12.7 °C 33755 hPa Calm     86 % 0 mm
05:14 -11.4 °C -12.6 °C 33755 hPa NNW 3.1 km/h 0.3 km/h 87 % 0 mm
05:19 -11.4 °C -12.4 °C 33755 hPa Calm     88 % 0 mm
05:24 -11.4 °C -12.4 °C 33755 hPa ENE 3.1 km/h   89 % 0 mm
05:29 -11.4 °C -12.3 °C 33788.9 hPa Calm     90 % 0 mm
05:34 -11.4 °C -12.3 °C 33788.9 hPa Calm     90 % 0 mm
05:39 -11.4 °C -12.3 °C 33788.9 hPa Calm     90 % 0 mm
05:44 -11.4 °C -12.3 °C 33788.9 hPa Calm     90 % 0 mm
05:49 -11.4 °C -12.4 °C 33788.9 hPa Calm     89 % 0 mm
05:54 -11.4 °C -12.4 °C 33788.9 hPa Calm     88 % 0 mm
05:59 -11.4 °C -12.4 °C 33788.9 hPa Calm     88 % 0 mm
06:04 -11.9 °C -13.1 °C 33788.9 hPa Calm     87 % 0 mm
06:09 -11.9 °C -13.1 °C 33788.9 hPa Calm     87 % 0 mm
06:14 -11.9 °C -13.1 °C 33788.9 hPa NNW 3.1 km/h   87 % 0 mm
06:19 -11.4 °C -12.4 °C 33788.9 hPa Calm     88 % 0 mm
06:24 -11.9 °C -13.1 °C 33788.9 hPa WSW 3.1 km/h 0.5 km/h 87 % 0 mm
06:29 -11.9 °C -13.1 °C 33788.9 hPa Calm     87 % 0 mm
06:34 -11.9 °C -13.1 °C 33788.9 hPa Calm     87 % 0 mm
06:39 -11.9 °C -13.1 °C 33822.8 hPa SW 3.1 km/h 1 km/h 87 % 0 mm
06:44 -11.9 °C -13.1 °C 33822.8 hPa Calm     87 % 0 mm
06:49 -11.9 °C -13.1 °C 33822.8 hPa WSW 6 km/h 2.9 km/h 87 % 0 mm
06:54 -11.9 °C -13.1 °C 33822.8 hPa WSW 6 km/h 2.9 km/h 87 % 0 mm
06:59 -11.9 °C -13.2 °C 33822.8 hPa SW 6 km/h 2.9 km/h 86 % 0 mm
07:04 -11.9 °C -13.2 °C 33822.8 hPa WSW 6 km/h 3.4 km/h 86 % 0 mm
07:09 -11.4 °C -12.7 °C 33822.8 hPa WSW 3.1 km/h   86 % 0 mm
07:14 -11.4 °C -12.7 °C 33822.8 hPa SW 6 km/h 3.9 km/h 86 % 0 mm
07:19 -11.4 °C -12.7 °C 33822.8 hPa WSW 3.1 km/h   86 % 0 mm
07:24 -11.4 °C -12.6 °C 33822.8 hPa Calm     87 % 0 mm
07:29 -11.4 °C -12.7 °C 33856.6 hPa WSW 3.1 km/h   86 % 0 mm
07:34 -11.4 °C -12.7 °C 33856.6 hPa SE 3.1 km/h   86 % 0 mm
07:39 -11.4 °C -12.7 °C 33856.6 hPa WSW 6 km/h 2.1 km/h 85 % 0 mm
07:44 -11.4 °C -12.9 °C 33856.6 hPa WSW 6.4 km/h 1.6 km/h 83 % 0 mm
07:49 -11.4 °C -13.2 °C 33856.6 hPa North 3.1 km/h 0.5 km/h 81 % 0 mm
07:54 -11.4 °C -13.2 °C 33856.6 hPa WSW 6 km/h 2.6 km/h 80 % 0 mm
07:59 -11.4 °C -13.3 °C 33856.6 hPa WSW 9 km/h 5 km/h 79 % 0 mm
08:04 -11.4 °C -13.4 °C 33856.6 hPa WSW 9 km/h 6 km/h 78 % 0 mm
08:09 -11.4 °C -13.4 °C 33856.6 hPa SW 6 km/h 2.9 km/h 78 % 0 mm
08:14 -11.4 °C -13.6 °C 33856.6 hPa WSW 6 km/h 2.9 km/h 77 % 0 mm
08:19 -11.4 °C -13.7 °C 33856.6 hPa WSW 9 km/h 5.5 km/h 76 % 0 mm
08:24 -11.4 °C -13.8 °C 33856.6 hPa WSW 9.7 km/h 8 km/h 75 % 0 mm
08:29 -11.4 °C -13.9 °C 33856.6 hPa WSW 9 km/h 3.9 km/h 74 % 0 mm
08:34 -10.8 °C -13.3 °C 33856.6 hPa WSW 11.9 km/h 5.1 km/h 74 % 0 mm
08:39 -10.8 °C -13.4 °C 33856.6 hPa WSW 11.9 km/h 8 km/h 73 % 0 mm
08:44 -10.3 °C -12.8 °C 33856.6 hPa WSW 11.9 km/h 6.8 km/h 74 % 0 mm
08:49 -10.3 °C -12.8 °C 33856.6 hPa WSW 12.9 km/h 6.9 km/h 74 % 0 mm
08:54 -10.3 °C -12.9 °C 33856.6 hPa WSW 11.9 km/h 6.9 km/h 73 % 0 mm
08:59 -10.3 °C -12.8 °C 33890.5 hPa SW 11.9 km/h 7.2 km/h 74 % 0 mm
09:04 -10.3 °C -12.9 °C 33890.5 hPa WSW 15 km/h 10.3 km/h 73 % 0 mm
09:09 -9.7 °C -12.5 °C 33890.5 hPa WSW 15 km/h 9.3 km/h 72 % 0 mm
09:14 -9.7 °C -12.5 °C 33890.5 hPa WSW 6.4 km/h 2.3 km/h 72 % 0 mm
09:19 -9.7 °C -12.6 °C 33890.5 hPa West 11.9 km/h 6.4 km/h 71 % 0 mm
09:24 -9.2 °C -12.2 °C 33890.5 hPa West 11.9 km/h 7.2 km/h 70 % 0 mm
09:29 -9.2 °C -12.6 °C 33890.5 hPa WSW 9.7 km/h 6 km/h 67 % 0 mm
09:34 -8.6 °C -13.9 °C 33890.5 hPa SW 6 km/h 3.9 km/h 53 % 0 mm
09:39 -8.6 °C -15.1 °C 33890.5 hPa NNW 11.9 km/h 7.6 km/h 46 % 20.32 mm
09:44 -8.6 °C -15.6 °C 33890.5 hPa WSW 15 km/h 9 km/h 43 % 20.32 mm
09:49 -8.6 °C -15.4 °C 33890.5 hPa WSW 11.4 km/h 4.7 km/h 44 % 20.32 mm
09:54 -8.6 °C -15.6 °C 33890.5 hPa WNW 11.9 km/h 7.2 km/h 43 % 20.32 mm
09:59 -8.1 °C -15.3 °C 33890.5 hPa NW 9.7 km/h 8.5 km/h 42 % 20.32 mm
10:04 -8.1 °C -14.6 °C 33890.5 hPa WNW 15 km/h 6.9 km/h 46 % 20.32 mm
10:09 -7.5 °C -13.9 °C 33890.5 hPa NW 11.9 km/h 7.7 km/h 47 % 20.32 mm
10:14 -7.5 °C -13.4 °C 33890.5 hPa WSW 6.4 km/h 6.4 km/h 50 % 20.32 mm
10:19 -7.5 °C -13.4 °C 33924.3 hPa WSW 29.8 km/h 18.3 km/h 50 % 20.32 mm
10:24 -7.5 °C -13.4 °C 33924.3 hPa WSW 24.1 km/h 15 km/h 50 % 20.32 mm
10:29 -7.5 °C -13.2 °C 33924.3 hPa WSW 22.5 km/h 12.7 km/h 51 % 20.32 mm
10:34 -7.5 °C -13.6 °C 33924.3 hPa SW 29.8 km/h 18.8 km/h 49 % 20.32 mm
10:39 -7.5 °C -13.6 °C 33924.3 hPa ESE 17.9 km/h 11.1 km/h 49 % 0 mm
10:44 -7.5 °C -13.7 °C 33924.3 hPa WSW 32.8 km/h 12.9 km/h 48 % 0 mm
10:49 -7.5 °C -13.9 °C 33924.3 hPa WSW 15 km/h 13.2 km/h 47 % 0 mm
10:54 -8.1 °C -14.3 °C 33924.3 hPa SW 15 km/h 11.1 km/h 48 % 0 mm
10:59 -8.1 °C -14.3 °C 33924.3 hPa SW 23.8 km/h 12.2 km/h 48 % 0 mm
11:04 -8.6 °C -14.9 °C 33924.3 hPa SW 20.9 km/h 13.5 km/h 47 % 0 mm
11:09 -8.1 °C -14.6 °C 33924.3 hPa SW 26.9 km/h 17.1 km/h 46 % 0 mm
11:14 -8.1 °C -14.4 °C 33924.3 hPa WNW 29.8 km/h 15 km/h 47 % 0 mm
11:19 -8.1 °C -14.4 °C 33924.3 hPa SW 17.9 km/h 12.2 km/h 47 % 0 mm
11:24 -7.5 °C -13.7 °C 33924.3 hPa WNW 20.9 km/h 11.6 km/h 48 % 0 mm
11:29 -6.9 °C -13.2 °C 33924.3 hPa WSW 23.8 km/h 13.7 km/h 48 % 0 mm
11:34 -6.9 °C -13.4 °C 33924.3 hPa SW 24.1 km/h 11.9 km/h 47 % 0 mm
11:39 -6.9 °C -13.8 °C 33958.2 hPa WNW 20.9 km/h 11.9 km/h 45 % 0 mm
11:44 -6.9 °C -13.8 °C 33958.2 hPa NE 15 km/h 8.5 km/h 45 % 0 mm
11:49 -6.4 °C -13.1 °C 33958.2 hPa NW 17.9 km/h 10.6 km/h 46 % 0 mm
11:54 -6.9 °C -13.6 °C 33958.2 hPa WSW 15 km/h 10.6 km/h 46 % 0 mm
11:59 -6.9 °C -13.9 °C 33958.2 hPa WNW 17.9 km/h 10.9 km/h 44 % 0 mm
12:04 -6.4 °C -13.4 °C 33958.2 hPa WSW 23.8 km/h 14 km/h 44 % 0 mm
12:09 -6.4 °C -13.6 °C 33958.2 hPa NW 20.9 km/h 9.3 km/h 43 % 0 mm
12:14 -6.4 °C -14.2 °C 33958.2 hPa NNW 6 km/h 3.7 km/h 40 % 0 mm
12:19 -5.8 °C -13.1 °C 33958.2 hPa NW 17.5 km/h 10.6 km/h 43 % 0 mm
12:24 -5.8 °C -12.9 °C 33958.2 hPa WSW 15 km/h 10.1 km/h 44 % 0 mm
12:29 -5.8 °C -13.5 °C 33958.2 hPa WNW 17.9 km/h 8.5 km/h 41 % 0 mm
12:34 -5.3 °C -13 °C 33958.2 hPa NNW 11.9 km/h 6.8 km/h 41 % 0 mm
12:39 -5.8 °C -13.7 °C 33958.2 hPa WSW 23.8 km/h 15.8 km/h 40 % 0 mm
12:44 -5.8 °C -13.5 °C 33958.2 hPa SW 14.5 km/h 7.2 km/h 41 % 0 mm
12:49 -5.8 °C -13.3 °C 33958.2 hPa WSW 29.8 km/h 12.9 km/h 42 % 0 mm
12:54 -6.4 °C -13.8 °C 33958.2 hPa SW 11.9 km/h 6.4 km/h 42 % 0 mm
12:59 -5.8 °C -13.3 °C 33958.2 hPa WSW 15 km/h 7.6 km/h 42 % 0 mm
13:04 -5.8 °C -13.3 °C 33958.2 hPa WNW 26.9 km/h 11.9 km/h 42 % 0 mm
13:09 -5.8 °C -13.5 °C 33958.2 hPa WNW 17.9 km/h 10.1 km/h 41 % 0 mm
13:14 -5.3 °C -13.4 °C 33958.2 hPa WSW 11.9 km/h 7.2 km/h 39 % 0 mm
13:19 -5.3 °C -13.7 °C 33958.2 hPa NW 17.9 km/h 10.6 km/h 38 % 0 mm
13:24 -5.3 °C -13.7 °C 33958.2 hPa NW 23.8 km/h 15.3 km/h 38 % 0 mm
13:29 -5.8 °C -13.9 °C 33958.2 hPa WNW 23.8 km/h 10.9 km/h 39 % 0 mm
13:34 -5.8 °C -14.1 °C 33958.2 hPa NW 20.9 km/h 12.4 km/h 38 % 0 mm
13:39 -5.8 °C -13.5 °C 33958.2 hPa SW 15 km/h 7.2 km/h 41 % 0 mm
13:44 -6.4 °C -14 °C 33958.2 hPa WSW 17.9 km/h 12.2 km/h 41 % 0 mm
13:49 -6.4 °C -13.8 °C 33958.2 hPa SW 14.5 km/h 10.9 km/h 42 % 0 mm
13:54 -6.4 °C -13.8 °C 33958.2 hPa SW 14.5 km/h 10.1 km/h 42 % 0 mm
13:59 -6.4 °C -13.6 °C 33958.2 hPa WSW 29.8 km/h 17.1 km/h 43 % 0 mm
14:04 -6.9 °C -13.2 °C 33958.2 hPa WSW 23.8 km/h 16.6 km/h 48 % 0 mm
14:09 -7.5 °C -13.2 °C 33958.2 hPa WSW 20.9 km/h 16.3 km/h 51 % 0 mm
14:14 -8.1 °C -13.4 °C 33958.2 hPa ENE 17.9 km/h 12.2 km/h 53 % 0 mm
14:19 -8.6 °C -12.9 °C 33992.1 hPa WSW 23.8 km/h 15.6 km/h 60 % 0 mm
14:24 -8.6 °C -12.6 °C 33992.1 hPa SW 15 km/h 9.3 km/h 63 % 12.7 mm
14:29 -8.6 °C -12.6 °C 33992.1 hPa WSW 15 km/h 10.9 km/h 63 % 12.7 mm
14:34 -8.6 °C -12.7 °C 33992.1 hPa WSW 14.5 km/h 8.2 km/h 62 % 12.7 mm
14:39 -8.6 °C -13.2 °C 33992.1 hPa SW 15 km/h 6.9 km/h 58 % 12.7 mm
14:44 -8.6 °C -13.5 °C 33992.1 hPa WSW 11.9 km/h 6.4 km/h 56 % 12.7 mm
14:49 -8.1 °C -13 °C 33992.1 hPa WSW 11.9 km/h 8.9 km/h 56 % 12.7 mm
14:54 -8.1 °C -13.6 °C 33992.1 hPa SSE 9 km/h 6.9 km/h 52 % 12.7 mm
14:59 -7.5 °C -12.8 °C 33992.1 hPa SW 9 km/h 3.1 km/h 54 % 12.7 mm
15:04 -7.5 °C -13.1 °C 33992.1 hPa NNW 9 km/h 5.5 km/h 52 % 12.7 mm
15:09 -6.9 °C -13.1 °C 33992.1 hPa West 3.1 km/h 1 km/h 49 % 12.7 mm
15:14 -6.9 °C -13.1 °C 33992.1 hPa SE 11.9 km/h 6.4 km/h 49 % 12.7 mm
15:19 -6.4 °C -12.7 °C 33992.1 hPa NE 17.9 km/h 11.9 km/h 48 % 12.7 mm
15:24 -6.4 °C -12.9 °C 33992.1 hPa SW 6 km/h 3.1 km/h 47 % 0 mm
15:29 -6.4 °C -12.9 °C 33992.1 hPa SSW 6.4 km/h 5.1 km/h 47 % 0 mm
15:34 -6.9 °C -13.6 °C 33992.1 hPa NE 11.9 km/h 9 km/h 46 % 0 mm
15:39 -6.9 °C -13.2 °C 33958.2 hPa ENE 9 km/h 7.6 km/h 48 % 0 mm
15:44 -6.9 °C -12.9 °C 33958.2 hPa NE 11.9 km/h 8 km/h 50 % 0 mm
15:49 -5.8 °C -11.7 °C 33958.2 hPa ENE 16.1 km/h 10.9 km/h 51 % 0 mm
15:54 -4.7 °C -11 °C 33958.2 hPa NE 16.1 km/h 6.9 km/h 49 % 0 mm
15:59 -5.3 °C -11.9 °C 33958.2 hPa SE 11.9 km/h 6.8 km/h 47 % 0 mm
16:04 -5.8 °C -12.4 °C 33958.2 hPa NE 9 km/h 6.8 km/h 47 % 0 mm
16:09 -5.8 °C -12.1 °C 33958.2 hPa ENE 15 km/h 3.7 km/h 49 % 0 mm
16:14 -5.8 °C -12.2 °C 33958.2 hPa SSE 11.9 km/h 8.5 km/h 48 % 0 mm
16:19 -6.4 °C -12.9 °C 33958.2 hPa SW 6 km/h 3.7 km/h 47 % 0 mm
16:24 -6.4 °C -12.9 °C 33958.2 hPa ESE 20.9 km/h 9 km/h 47 % 0 mm
16:29 -6.4 °C -12.7 °C 33958.2 hPa WSW 9 km/h 2.6 km/h 48 % 0 mm
16:34 -6.4 °C -12.6 °C 33958.2 hPa ESE 11.4 km/h 6.3 km/h 49 % 0 mm
16:39 -6.4 °C -12.7 °C 33924.3 hPa NE 15 km/h 11.6 km/h 48 % 0 mm
16:44 -6.4 °C -12.7 °C 33924.3 hPa SE 22.5 km/h 10.6 km/h 48 % 0 mm
16:49 -6.4 °C -12.7 °C 33924.3 hPa ENE 11.9 km/h 8.2 km/h 48 % 0 mm
16:54 -6.4 °C -12.7 °C 33924.3 hPa ESE 11.9 km/h 6.3 km/h 48 % 0 mm
16:59 -6.4 °C -12.7 °C 33924.3 hPa East 15 km/h 7.2 km/h 48 % 0 mm
17:04 -5.8 °C -12.2 °C 33924.3 hPa West 11.9 km/h 6.4 km/h 48 % 0 mm
17:09 -5.8 °C -12.1 °C 33924.3 hPa ESE 17.9 km/h 7.2 km/h 49 % 0 mm
17:14 -5.8 °C -12.1 °C 33924.3 hPa NE 15 km/h 6 km/h 49 % 0 mm
17:19 -5.8 °C -12.2 °C 33924.3 hPa SSE 6.4 km/h 3.9 km/h 48 % 0 mm
17:24 -6.4 °C -12.7 °C 33924.3 hPa SSE 9 km/h 8.2 km/h 48 % 0 mm
17:29 -5.8 °C -12.2 °C 33924.3 hPa SE 15 km/h 6.3 km/h 48 % 0 mm
17:34 -5.8 °C -12.1 °C 33924.3 hPa SSE 23.8 km/h 8.2 km/h 49 % 0 mm
17:39 -5.8 °C -12.1 °C 33924.3 hPa SSE 17.9 km/h 6.4 km/h 49 % 0 mm
17:44 -5.8 °C -12.2 °C 33924.3 hPa ENE 11.9 km/h 7.6 km/h 48 % 0 mm
17:49 -5.8 °C -12.2 °C 33924.3 hPa ESE 11.9 km/h 7.7 km/h 48 % 0 mm
17:54 -5.8 °C -12.4 °C 33924.3 hPa SW 9 km/h 6.4 km/h 47 % 0 mm
17:59 -5.8 °C -13.1 °C 33924.3 hPa SE 11.9 km/h 6.4 km/h 43 % 0 mm
18:04 -5.8 °C -13.5 °C 33924.3 hPa East 15 km/h 5.5 km/h 41 % 0 mm
18:09 -5.8 °C -13.1 °C 33924.3 hPa SE 8 km/h 2.9 km/h 43 % 0 mm
18:14 -5.8 °C -13.5 °C 33924.3 hPa East 6 km/h 3.1 km/h 41 % 0 mm
18:19 -5.8 °C -13.5 °C 33924.3 hPa NNE 11.9 km/h 6 km/h 41 % 0 mm
18:24 -5.8 °C -13.5 °C 33924.3 hPa East 9 km/h 6.4 km/h 41 % 0 mm
18:29 -5.8 °C -13.1 °C 33924.3 hPa NE 9 km/h 5.6 km/h 43 % 0 mm
18:34 -5.8 °C -12.9 °C 33924.3 hPa NNE 6 km/h 0.8 km/h 44 % 0 mm
18:39 -5.8 °C -12.9 °C 33924.3 hPa NNW 9 km/h 5.6 km/h 44 % 0 mm
18:44 -5.8 °C -12.9 °C 33924.3 hPa ENE 8 km/h 5.1 km/h 44 % 0 mm
18:49 -5.8 °C -12.4 °C 33924.3 hPa SE 11.9 km/h 8.9 km/h 47 % 0 mm
18:54 -5.8 °C -12.2 °C 33924.3 hPa North 20.9 km/h 10.3 km/h 48 % 0 mm
18:59 -6.4 °C -12.6 °C 33924.3 hPa ENE 11.9 km/h 7.2 km/h 49 % 0 mm
19:04 -6.4 °C -12.6 °C 33924.3 hPa SE 11.9 km/h 7.2 km/h 49 % 0 mm
19:09 -6.4 °C -12.6 °C 33924.3 hPa SE 12.9 km/h 7.6 km/h 49 % 0 mm
19:14 -6.4 °C -12.6 °C 33924.3 hPa SE 12.9 km/h 7.7 km/h 49 % 0 mm
19:19 -6.4 °C -12.7 °C 33924.3 hPa SE 20.9 km/h 8 km/h 48 % 0 mm
19:24 -6.4 °C -12.6 °C 33924.3 hPa East 9 km/h 5.5 km/h 49 % 0 mm
19:29 -6.9 °C -12.9 °C 33924.3 hPa SW 11.9 km/h 5.6 km/h 50 % 0 mm
19:34 -6.9 °C -12.9 °C 33924.3 hPa SE 9.7 km/h 4.7 km/h 50 % 0 mm
19:39 -6.9 °C -12.7 °C 33924.3 hPa West 15 km/h 7.2 km/h 51 % 0 mm
19:44 -6.9 °C -12.7 °C 33890.5 hPa SSE 11.9 km/h 5.1 km/h 51 % 0 mm
19:49 -6.9 °C -12.6 °C 33890.5 hPa SSW 9 km/h 4.3 km/h 52 % 0 mm
19:54 -6.9 °C -12.4 °C 33924.3 hPa Calm     53 % 0 mm
19:59 -6.9 °C -12.4 °C 33924.3 hPa SSE 9 km/h 3.9 km/h 53 % 0 mm
20:04 -6.9 °C -12.3 °C 33924.3 hPa SE 9 km/h 1.3 km/h 54 % 0 mm
20:09 -6.9 °C -12.3 °C 33924.3 hPa WSW 6 km/h 1.8 km/h 54 % 0 mm
20:14 -6.9 °C -12.3 °C 33924.3 hPa ENE 6.4 km/h 4.3 km/h 54 % 0 mm
20:19 -6.9 °C -12.1 °C 33924.3 hPa East 9 km/h 4.2 km/h 55 % 0 mm
20:24 -7.5 °C -12.4 °C 33924.3 hPa SSW 3.1 km/h 1 km/h 56 % 0 mm
20:29 -7.5 °C -12.4 °C 33924.3 hPa NE 9 km/h 0.8 km/h 56 % 0 mm
20:34 -7.5 °C -12.3 °C 33958.2 hPa SE 11.9 km/h 3.7 km/h 57 % 0 mm
20:39 -7.5 °C -12.3 °C 33924.3 hPa SE 15 km/h 6 km/h 57 % 0 mm
20:44 -7.5 °C -12.3 °C 33924.3 hPa SE 15 km/h 9 km/h 57 % 0 mm
20:49 -7.5 °C -12.2 °C 33924.3 hPa East 12.9 km/h 8.5 km/h 58 % 0 mm
20:54 -7.5 °C -12.2 °C 33958.2 hPa SE 11.9 km/h 8 km/h 58 % 0 mm
20:59 -7.5 °C -12.2 °C 33958.2 hPa East 9 km/h 5.1 km/h 58 % 0 mm
21:04 -7.5 °C -12.2 °C 33958.2 hPa SE 17.9 km/h 8.5 km/h 58 % 0 mm
21:09 -7.5 °C -12.1 °C 33958.2 hPa ESE 11.9 km/h 7.2 km/h 59 % 0 mm
21:14 -8.1 °C -12.6 °C 33958.2 hPa SSE 11.9 km/h 5 km/h 59 % 0 mm
21:19 -8.1 °C -12.6 °C 33958.2 hPa SE 15 km/h 8 km/h 59 % 0 mm
21:24 -8.1 °C -12.6 °C 33958.2 hPa East 9.7 km/h 4.7 km/h 59 % 0 mm
21:29 -8.1 °C -12.6 °C 33958.2 hPa ENE 9 km/h 5.5 km/h 59 % 0 mm
21:34 -8.1 °C -12.4 °C 33958.2 hPa ENE 15 km/h 11.9 km/h 60 % 0 mm
21:39 -8.1 °C -12.4 °C 33958.2 hPa ENE 9 km/h 3.7 km/h 60 % 0 mm
21:44 -8.1 °C -12.4 °C 33958.2 hPa ENE 9 km/h 7.2 km/h 60 % 0 mm
21:49 -8.1 °C -12.6 °C 33958.2 hPa SE 9 km/h 5.5 km/h 59 % 0 mm
21:54 -8.1 °C -12.7 °C 33958.2 hPa NE 11.9 km/h 8.9 km/h 58 % 0 mm
21:59 -8.1 °C -12.6 °C 33958.2 hPa ENE 15 km/h 10.6 km/h 59 % 0 mm
22:04 -8.1 °C -12.7 °C 33958.2 hPa SE 14.5 km/h 13.5 km/h 58 % 0 mm
22:09 -8.1 °C -12.7 °C 33958.2 hPa SE 11.9 km/h 7.6 km/h 58 % 0 mm
22:14 -8.1 °C -12.6 °C 33958.2 hPa NE 12.9 km/h 8.5 km/h 59 % 0 mm
22:19 -8.1 °C -12.6 °C 33958.2 hPa NNW 9 km/h 5.5 km/h 59 % 0 mm
Alcoletge
Elogios de Weather Underground - 1.75 mb

Guión original por  Jim McMurry - jmcmurry@mwt.net Adaptado para la plantilla por  Wim van der Kuil - Leuven-Template.eu

Usted encontrará nuestra información del tiempo también en:

Weather Underground

Iberian Peninsula Weather Network